Time;durP1;ratioP1;P1;durP2;ratioP2;P2;SDS_P1;SDS_P2;PMS_P1;PMS_P2;Temp;Humidity;BMP_temperature;BMP_pressure;BME280_temperature;BME280_humidity;BME280_pressure;Samples;Min_cycle;Max_cycle;Signal;HPM_P1;HPM_P2
2022/03/10 00:00:07;;;;;;;21.13;15.07;;;;;;;6.73;47.42;102074.41;5007896;28;20116;-83
2022/03/10 00:02:42;;;;;;;20.48;15.00;;;;;;;6.34;46.95;101977.81;5006414;28;20435;-83
2022/03/10 00:05:21;;;;;;;16.30;13.85;;;;;;;5.70;46.42;101866.59;4990387;28;20074;-83
2022/03/10 00:07:47;;;;;;;21.85;13.75;;;;;;;6.28;46.07;101972.81;4989964;28;20056;-85
2022/03/10 00:10:14;;;;;;;19.90;15.20;;;;;;;6.90;46.66;102090.25;4989720;28;20555;-84
2022/03/10 00:12:51;;;;;;;17.98;13.68;;;;;;;5.41;46.60;101833.75;4989679;28;20042;-84
2022/03/10 00:15:22;;;;;;;22.10;13.82;;;;;;;6.79;46.16;102056.44;4999502;28;20167;-83
2022/03/10 00:17:50;;;;;;;23.80;14.90;;;;;;;6.82;47.19;102087.13;5009478;28;20049;-83
2022/03/10 00:20:17;;;;;;;16.35;14.35;;;;;;;6.78;47.50;102118.09;5027157;28;20049;-82
2022/03/10 00:22:45;;;;;;;19.25;13.93;;;;;;;5.63;48.37;101938.97;5009550;28;20149;-84
2022/03/10 00:25:13;;;;;;;21.02;14.30;;;;;;;6.70;48.06;102122.03;5027337;28;20542;-84
2022/03/10 00:27:40;;;;;;;24.42;15.55;;;;;;;6.61;46.95;102094.31;5027051;28;20083;-84
2022/03/10 00:30:08;;;;;;;18.13;13.63;;;;;;;5.32;46.79;101882.47;5028164;28;20112;-84
2022/03/10 00:32:47;;;;;;;18.52;14.60;;;;;;;6.23;46.43;102031.06;5009578;28;20134;-84
2022/03/10 00:35:18;;;;;;;19.73;14.07;;;;;;;6.20;47.90;102034.69;5008902;28;20477;-84
2022/03/10 00:37:51;;;;;;;17.92;13.90;;;;;;;5.62;47.74;101949.59;5010045;28;20056;-85
2022/03/10 00:40:19;;;;;;;28.02;15.13;;;;;;;5.90;47.17;101993.94;5009397;28;20049;-84
2022/03/10 00:42:48;;;;;;;19.73;14.57;;;;;;;6.84;46.73;102127.50;5027427;28;20388;-84
2022/03/10 00:45:19;;;;;;;18.73;13.82;;;;;;;5.29;47.03;101885.25;5027159;28;20123;-83
2022/03/10 00:47:47;;;;;;;17.25;14.45;;;;;;;5.45;47.98;101924.88;5012540;28;20049;-84
2022/03/10 00:50:14;;;;;;;17.25;14.15;;;;;;;5.90;47.70;102017.69;5030575;28;20338;-85
2022/03/10 00:52:45;;;;;;;17.92;13.52;;;;;;;6.52;48.06;102134.34;5012128;28;20499;-85
2022/03/10 00:55:16;;;;;;;19.27;14.25;;;;;;;5.69;46.94;101980.00;5030180;28;20061;-85
2022/03/10 00:57:42;;;;;;;17.75;13.35;;;;;;;6.49;47.07;102102.81;5012725;28;20049;-85
2022/03/10 01:00:10;;;;;;;18.50;13.63;;;;;;;6.00;48.46;102029.53;5012846;28;20045;-85
2022/03/10 01:02:36;;;;;;;16.88;13.65;;;;;;;5.30;48.61;101922.94;5013261;28;20061;-84
2022/03/10 01:05:09;;;;;;;17.92;13.10;;;;;;;5.66;48.63;102002.06;5029820;28;20054;-84
2022/03/10 01:07:36;;;;;;;16.05;13.35;;;;;;;6.28;48.61;102095.00;5012409;28;20049;-84
2022/03/10 01:10:06;;;;;;;19.92;13.50;;;;;;;5.52;48.11;101980.75;5029732;28;20497;-85
2022/03/10 01:12:33;;;;;;;21.77;14.00;;;;;;;4.63;48.50;101842.63;5029728;28;20089;-84
2022/03/10 01:15:00;;;;;;;17.13;13.05;;;;;;;5.45;49.30;101966.16;5022444;28;20104;-83
2022/03/10 01:17:26;;;;;;;18.00;12.98;;;;;;;4.97;49.18;101909.53;4992325;28;20104;-85
2022/03/10 01:19:53;;;;;;;18.23;13.65;;;;;;;5.26;49.19;101956.44;4992910;28;20042;-84
2022/03/10 01:22:20;;;;;;;19.00;13.38;;;;;;;5.71;49.11;102021.16;4994000;28;20042;-83
2022/03/10 01:24:47;;;;;;;20.15;13.50;;;;;;;6.00;49.05;102063.78;4995134;28;20144;-83
2022/03/10 01:27:15;;;;;;;20.23;13.05;;;;;;;5.82;49.15;102056.69;4993887;28;20103;-84
2022/03/10 01:29:42;;;;;;;22.00;13.55;;;;;;;5.16;48.98;101931.47;5011103;28;20096;-84
2022/03/10 01:32:08;;;;;;;17.23;12.38;;;;;;;4.54;48.30;101827.22;4992302;28;20046;-83
2022/03/10 01:34:35;;;;;;;17.67;13.38;;;;;;;6.22;47.68;102082.09;5009657;28;20058;-85
2022/03/10 01:37:02;;;;;;;21.85;13.02;;;;;;;4.63;48.25;101808.41;4992381;28;20479;-84
2022/03/10 01:39:32;;;;;;;17.95;13.40;;;;;;;4.53;48.97;101804.50;5009880;28;20190;-85
2022/03/10 01:42:03;;;;;;;19.90;12.93;;;;;;;5.58;48.19;101975.19;4992492;28;20046;-85
2022/03/10 01:44:29;;;;;;;18.73;13.77;;;;;;;6.26;47.76;102081.00;5010436;28;20056;-84
2022/03/10 01:46:56;;;;;;;15.75;12.70;;;;;;;4.43;48.63;101794.38;4992697;28;20054;-84
2022/03/10 01:49:23;;;;;;;14.00;11.75;;;;;;;6.04;49.16;102086.44;4993169;28;20132;-84
2022/03/10 01:51:50;;;;;;;16.63;12.57;;;;;;;5.42;49.03;102000.56;4992955;28;20050;-84
2022/03/10 01:54:18;;;;;;;18.83;12.63;;;;;;;5.44;48.90;101990.81;4993239;28;20081;-84
2022/03/10 01:56:44;;;;;;;15.77;12.57;;;;;;;5.30;49.12;101962.44;4993556;28;20047;-85
2022/03/10 01:59:12;;;;;;;16.23;12.32;;;;;;;4.75;49.62;101876.25;4992361;28;20046;-84
2022/03/10 02:01:39;;;;;;;15.82;11.75;;;;;;;5.77;48.63;102063.00;5008485;28;20058;-85
2022/03/10 02:04:06;;;;;;;13.98;11.75;;;;;;;5.61;49.67;102046.22;5008062;28;20108;-84
2022/03/10 02:06:33;;;;;;;15.98;12.15;;;;;;;5.60;48.29;102033.94;4991337;28;20064;-85
2022/03/10 02:11:45;;;;;;;18.90;11.45;;;;;;;5.63;47.96;102057.53;5007999;28;20455;-84
2022/03/10 02:19:44;;;;;;;15.43;11.30;;;;;;;5.68;47.82;102038.88;5028501;28;20050;-84
2022/03/10 02:22:14;;;;;;;13.75;10.27;;;;;;;4.69;47.22;101876.56;5010957;28;20056;-85
2022/03/10 02:24:42;;;;;;;12.10;9.50;;;;;;;5.53;47.37;102011.44;5009832;28;20140;-85
2022/03/10 02:27:27;;;;;;;15.05;10.65;;;;;;;5.71;47.79;102047.50;5010070;28;20351;-85
2022/03/10 02:29:57;;;;;;;15.23;10.93;;;;;;;5.46;47.17;102010.00;5009900;28;20045;-85
2022/03/10 02:32:23;;;;;;;12.75;9.75;;;;;;;5.82;46.46;102072.50;5009966;28;20164;-85
2022/03/10 02:34:50;;;;;;;12.20;10.52;;;;;;;5.72;46.44;102051.84;5009574;28;20049;-85
2022/03/10 02:37:18;;;;;;;14.27;11.13;;;;;;;5.83;46.84;102072.44;5010303;28;20053;-84
2022/03/10 02:39:46;;;;;;;16.48;10.43;;;;;;;5.67;47.74;102053.81;5026861;28;20140;-84
2022/03/10 02:42:13;;;;;;;12.45;10.25;;;;;;;5.90;46.44;102073.03;5008649;28;20486;-84
2022/03/10 02:44:47;;;;;;;15.10;10.15;;;;;;;5.81;47.72;102047.94;5008414;28;20508;-85
2022/03/10 02:47:15;;;;;;;23.75;10.52;;;;;;;5.86;47.39;102082.00;5009110;28;20346;-83
2022/03/10 02:49:42;;;;;;;13.25;10.73;;;;;;;5.83;47.83;102087.41;5010098;28;20128;-84
2022/03/10 02:52:09;;;;;;;12.15;9.52;;;;;;;5.77;46.93;102085.88;5010287;28;20041;-85
2022/03/10 02:54:42;;;;;;;12.18;10.07;;;;;;;5.65;46.60;102068.84;5010994;28;20501;-84
2022/03/10 02:57:08;;;;;;;14.68;10.23;;;;;;;5.69;46.81;102074.84;5010083;28;20499;-84
2022/03/10 02:59:35;;;;;;;13.80;11.15;;;;;;;5.22;47.17;102004.94;5010596;28;20510;-83
2022/03/10 03:02:03;;;;;;;12.18;9.70;;;;;;;5.31;47.96;102022.94;5010290;28;20057;-83
2022/03/10 03:04:30;;;;;;;12.25;10.23;;;;;;;5.62;47.14;102079.53;5010868;28;20445;-84
2022/03/10 03:06:57;;;;;;;11.27;10.13;;;;;;;5.47;47.99;102061.78;5026229;28;20132;-84
2022/03/10 03:09:23;;;;;;;17.27;10.07;;;;;;;5.58;48.11;102091.13;5011522;28;20418;-84
2022/03/10 03:11:50;;;;;;;14.00;9.93;;;;;;;5.62;47.49;102089.22;5010722;28;20140;-84
2022/03/10 03:14:17;;;;;;;17.13;10.33;;;;;;;4.96;47.73;101982.38;5007546;28;20415;-83
2022/03/10 03:16:44;;;;;;;14.32;10.73;;;;;;;5.60;47.95;102097.19;4989948;28;20057;-84
2022/03/10 03:19:11;;;;;;;13.18;10.52;;;;;;;5.62;48.17;102100.59;5007171;28;20070;-84
2022/03/10 03:21:39;;;;;;;13.88;10.45;;;;;;;5.27;47.99;102046.84;5007050;28;20108;-85
2022/03/10 03:24:06;;;;;;;15.98;11.40;;;;;;;5.60;48.73;102105.09;5006998;28;20064;-84
2022/03/10 03:26:33;;;;;;;13.47;10.40;;;;;;;5.56;48.84;102108.78;4989677;28;20129;-84
2022/03/10 03:28:59;;;;;;;14.33;10.57;;;;;;;5.61;48.83;102104.19;4989892;28;20117;-84
2022/03/10 03:31:26;;;;;;;11.47;9.67;;;;;;;5.38;49.15;102085.88;4991553;28;20053;-85
2022/03/10 03:33:53;;;;;;;15.87;10.73;;;;;;;5.42;49.16;102084.84;4992421;28;20042;-84
2022/03/10 03:36:19;;;;;;;15.23;10.47;;;;;;;5.38;49.12;102078.81;5009355;28;20084;-84
2022/03/10 03:38:46;;;;;;;12.20;10.27;;;;;;;5.51;49.50;102108.09;4991060;28;20423;-84
2022/03/10 03:41:13;;;;;;;12.57;10.25;;;;;;;4.16;49.12;101900.72;4990098;28;20069;-85
2022/03/10 03:43:40;;;;;;;15.10;10.38;;;;;;;4.89;49.18;102031.78;5007105;28;20193;-83
2022/03/10 03:46:07;;;;;;;13.45;10.60;;;;;;;3.97;48.99;101875.19;4989195;28;20053;-85
2022/03/10 03:48:34;;;;;;;14.27;10.60;;;;;;;4.08;48.86;101927.31;4989467;28;20124;-84
2022/03/10 03:51:01;;;;;;;12.67;9.90;;;;;;;5.32;49.29;102130.00;5007025;28;20431;-84
2022/03/10 03:53:29;;;;;;;13.43;10.47;;;;;;;4.79;48.47;102048.03;4989142;28;20050;-84
2022/03/10 03:55:56;;;;;;;17.97;11.47;;;;;;;5.25;48.09;102111.88;4989093;28;20214;-84
2022/03/10 03:58:22;;;;;;;15.80;11.53;;;;;;;4.58;47.83;102010.28;4989184;28;20076;-85
2022/03/10 04:00:49;;;;;;;14.87;10.67;;;;;;;5.02;47.86;102068.94;4989433;28;20073;-85
2022/03/10 04:03:16;;;;;;;16.13;11.80;;;;;;;5.29;47.97;102123.97;4989677;28;20077;-85
2022/03/10 04:05:44;;;;;;;12.23;10.63;;;;;;;5.10;47.77;102087.06;4989159;28;20053;-85
2022/03/10 04:08:13;;;;;;;13.02;10.57;;;;;;;5.26;48.11;102118.84;4989451;28;20108;-85
2022/03/10 04:10:42;;;;;;;13.40;10.43;;;;;;;5.07;48.84;102084.53;4989102;28;20096;-84
2022/03/10 04:13:09;;;;;;;19.53;11.27;;;;;;;4.19;48.53;101929.50;5006582;28;20046;-84
2022/03/10 04:15:36;;;;;;;12.20;9.83;;;;;;;4.47;48.04;101974.78;4989157;28;20358;-85
2022/03/10 04:18:03;;;;;;;14.07;10.52;;;;;;;4.78;48.00;102022.59;5006495;28;20057;-83
2022/03/10 04:20:30;;;;;;;12.17;10.77;;;;;;;3.68;48.71;101844.00;4989027;28;20077;-83
2022/03/10 04:22:57;;;;;;;14.17;10.50;;;;;;;5.20;48.51;102082.28;4992914;28;20062;-85
2022/03/10 04:25:24;;;;;;;14.40;11.80;;;;;;;5.19;48.55;102101.59;4993144;28;20498;-85
2022/03/10 04:27:53;;;;;;;16.27;12.00;;;;;;;5.35;49.40;102126.38;5010458;28;20736;-83
2022/03/10 04:30:23;;;;;;;13.57;10.93;;;;;;;4.47;48.06;101951.09;4993288;28;20050;-84
2022/03/10 04:32:50;;;;;;;21.20;11.40;;;;;;;5.20;48.01;102058.56;4992996;28;20053;-83
2022/03/10 04:35:19;;;;;;;17.53;11.37;;;;;;;5.76;47.04;102119.28;4992984;28;20112;-84
2022/03/10 04:37:50;;;;;;;14.43;11.47;;;;;;;4.27;47.83;101893.22;4993475;28;20062;-84
2022/03/10 04:40:17;;;;;;;16.65;12.00;;;;;;;5.21;48.19;102073.44;4993670;28;20797;-85
2022/03/10 04:42:44;;;;;;;15.57;10.70;;;;;;;5.33;48.73;102118.53;4992681;28;20104;-84
2022/03/10 04:45:11;;;;;;;13.47;10.33;;;;;;;5.03;48.48;102080.34;5008468;28;20054;-83
2022/03/10 04:47:40;;;;;;;15.63;10.93;;;;;;;5.26;48.61;102132.03;5010602;28;20562;-84
2022/03/10 04:50:11;;;;;;;13.97;10.87;;;;;;;4.62;48.45;102035.56;5010257;28;20108;-83
2022/03/10 04:52:38;;;;;;;13.47;10.07;;;;;;;5.12;48.40;102111.53;4993266;28;20145;-85
2022/03/10 04:55:06;;;;;;;15.17;11.03;;;;;;;5.13;47.96;102102.72;4992641;28;20042;-84
2022/03/10 04:57:34;;;;;;;14.00;10.33;;;;;;;5.22;47.72;102139.22;4992890;28;20064;-84
2022/03/10 05:00:05;;;;;;;15.00;11.60;;;;;;;5.25;48.00;102127.69;5010188;28;20555;-84
2022/03/10 05:02:32;;;;;;;11.43;10.23;;;;;;;5.01;47.98;102092.72;4992688;28;20136;-83
2022/03/10 05:04:58;;;;;;;13.23;10.47;;;;;;;4.62;47.80;102019.78;5010816;28;20306;-84
2022/03/10 05:07:26;;;;;;;14.80;10.50;;;;;;;4.75;48.19;102044.63;4993106;28;20049;-84
2022/03/10 05:09:53;;;;;;;17.73;10.00;;;;;;;4.54;48.19;102006.94;5013410;28;20049;-84
2022/03/10 05:12:20;;;;;;;15.53;10.77;;;;;;;4.64;48.33;102031.94;5005685;28;20054;-85
2022/03/10 05:14:46;;;;;;;14.47;10.23;;;;;;;4.64;48.40;102031.09;5014780;28;20060;-84
2022/03/10 05:17:13;;;;;;;16.37;10.97;;;;;;;5.17;47.80;102106.97;5033845;28;20033;-84
2022/03/10 05:19:40;;;;;;;13.10;10.10;;;;;;;5.29;48.10;102127.50;5038021;28;20050;-84
2022/03/10 05:22:07;;;;;;;16.50;10.53;;;;;;;5.44;47.63;102138.31;5032491;28;20045;-84
2022/03/10 05:24:35;;;;;;;16.70;10.50;;;;;;;5.26;47.99;102098.63;5015350;28;20105;-85
2022/03/10 05:27:02;;;;;;;16.42;10.00;;;;;;;4.49;48.21;101999.25;5034636;28;20474;-84
2022/03/10 05:29:28;;;;;;;12.67;10.33;;;;;;;5.03;48.56;102088.25;5016631;28;20069;-84
2022/03/10 05:31:56;;;;;;;16.67;11.10;;;;;;;5.35;48.47;102145.66;5011651;28;20054;-85
2022/03/10 05:34:22;;;;;;;14.23;9.70;;;;;;;3.77;48.84;101896.16;5028050;28;20049;-83
2022/03/10 05:36:49;;;;;;;13.80;9.63;;;;;;;4.29;47.90;101968.47;5032172;28;20059;-81
2022/03/10 05:39:16;;;;;;;12.87;9.70;;;;;;;5.30;47.68;102121.28;5034862;28;20197;-84
2022/03/10 05:41:42;;;;;;;14.73;10.70;;;;;;;5.48;47.63;102150.41;5032200;28;20077;-82
2022/03/10 05:44:09;;;;;;;10.90;9.70;;;;;;;5.46;47.07;102160.13;5029137;28;20056;-84
2022/03/10 05:46:36;;;;;;;14.50;10.33;;;;;;;5.23;47.32;102130.38;5007381;28;20520;-84
2022/03/10 05:49:02;;;;;;;14.27;10.07;;;;;;;5.33;47.71;102155.38;5027746;28;20056;-83
2022/03/10 05:51:29;;;;;;;12.63;10.13;;;;;;;5.34;47.51;102159.75;5010256;28;20049;-84
2022/03/10 05:53:56;;;;;;;13.53;10.20;;;;;;;5.29;47.66;102161.72;5008699;28;20505;-83
2022/03/10 05:56:25;;;;;;;14.97;10.53;;;;;;;4.66;47.78;102068.69;5010271;28;20411;-81
2022/03/10 05:58:52;;;;;;;16.60;10.30;;;;;;;4.74;47.30;102084.19;5009961;28;20081;-82
2022/03/10 06:01:19;;;;;;;13.47;10.43;;;;;;;3.83;46.94;101927.44;5009375;28;20354;-84
2022/03/10 06:03:47;;;;;;;16.33;11.20;;;;;;;5.37;47.32;102189.53;5009915;28;20164;-83
2022/03/10 06:06:14;;;;;;;14.27;10.70;;;;;;;5.49;46.65;102181.09;5008902;28;20371;-83
2022/03/10 06:08:42;;;;;;;15.90;10.53;;;;;;;5.51;47.15;102184.50;5027201;28;20266;-82
2022/03/10 06:11:09;;;;;;;13.43;10.63;;;;;;;5.47;47.52;102172.41;5027136;28;20045;-83
2022/03/10 06:13:37;;;;;;;18.27;11.30;;;;;;;5.55;47.23;102180.81;5028236;28;20392;-83
2022/03/10 06:16:04;;;;;;;14.93;11.43;;;;;;;5.56;47.43;102190.47;4994151;28;20112;-84
2022/03/10 06:18:31;;;;;;;17.40;11.73;;;;;;;5.54;48.09;102192.28;4989822;28;20052;-85
2022/03/10 06:20:58;;;;;;;13.20;10.97;;;;;;;5.44;47.82;102170.75;4989690;28;20128;-83
2022/03/10 06:23:25;;;;;;;15.20;10.43;;;;;;;5.57;47.80;102187.75;4990080;28;20041;-84
2022/03/10 06:25:52;;;;;;;16.20;11.27;;;;;;;5.53;48.20;102187.94;5007537;28;20057;-84
2022/03/10 06:28:19;;;;;;;16.87;11.20;;;;;;;4.98;48.26;102085.81;4997511;28;20137;-84
2022/03/10 06:30:46;;;;;;;21.73;12.23;;;;;;;5.06;47.41;102088.13;5006399;28;20096;-85
2022/03/10 06:33:13;;;;;;;23.87;11.80;;;;;;;4.66;47.85;102014.31;5026055;28;20061;-84
2022/03/10 06:35:40;;;;;;;18.30;12.87;;;;;;;5.76;47.74;102211.53;5009680;28;20053;-83
2022/03/10 06:38:07;;;;;;;19.20;13.80;;;;;;;5.21;47.34;102094.50;5009235;28;20610;-83
2022/03/10 06:40:34;;;;;;;20.75;13.07;;;;;;;5.06;48.72;102074.94;5027155;28;20499;-83
2022/03/10 06:43:00;;;;;;;22.07;13.77;;;;;;;5.00;48.18;102038.34;5007080;28;20057;-84
2022/03/10 06:45:27;;;;;;;22.03;14.00;;;;;;;5.35;47.77;102087.72;4990042;28;20049;-85
2022/03/10 06:47:54;;;;;;;20.10;13.13;;;;;;;6.06;47.62;102190.06;4990042;28;20057;-83
2022/03/10 06:50:21;;;;;;;18.60;14.10;;;;;;;5.24;47.80;102046.97;5006586;28;20056;-83
2022/03/10 06:52:52;;;;;;;19.20;13.95;;;;;;;5.69;47.64;102112.59;5006549;28;20425;-84
2022/03/10 06:55:19;;;;;;;20.98;14.32;;;;;;;5.96;47.49;102147.44;4989816;28;20041;-84
2022/03/10 06:57:47;;;;;;;19.77;14.70;;;;;;;5.26;47.31;102018.78;5005565;28;20111;-85
2022/03/10 07:00:14;;;;;;;19.55;13.60;;;;;;;6.38;46.82;102201.81;5006324;28;20050;-83
2022/03/10 07:02:40;;;;;;;16.33;12.90;;;;;;;5.94;47.15;102122.06;5008674;28;20534;-82
2022/03/10 07:05:08;;;;;;;21.83;14.83;;;;;;;5.71;46.89;102065.94;4990571;28;20046;-82
2022/03/10 07:07:35;;;;;;;23.07;14.40;;;;;;;6.30;46.29;102156.44;4989792;28;20421;-81
2022/03/10 07:10:03;;;;;;;18.88;14.45;;;;;;;6.69;45.96;102221.47;5005742;28;20076;-83
2022/03/10 07:12:36;;;;;;;21.67;13.60;;;;;;;6.77;46.52;102207.91;5008660;28;20751;-81
2022/03/10 07:15:07;;;;;;;22.60;13.38;;;;;;;6.84;46.26;102211.97;5008558;28;20055;-82
2022/03/10 07:17:34;;;;;;;22.98;15.02;;;;;;;7.05;44.36;102203.03;5009217;28;20132;-82
2022/03/10 07:20:01;;;;;;;25.38;14.82;;;;;;;7.03;44.37;102189.03;5008629;28;20072;-81
2022/03/10 07:22:28;;;;;;;20.33;15.18;;;;;;;7.20;44.29;102211.97;5026433;28;20065;-82
2022/03/10 07:24:54;;;;;;;24.08;16.77;;;;;;;7.31;43.92;102203.53;5010345;28;20218;-81
2022/03/10 07:27:21;;;;;;;24.90;17.95;;;;;;;7.56;43.13;102212.88;5010645;28;20103;-80
2022/03/10 07:29:48;;;;;;;28.33;19.42;;;;;;;7.61;42.77;102210.84;5027663;28;20084;-81
2022/03/10 07:32:15;;;;;;;24.23;17.50;;;;;;;7.67;42.49;102216.69;5027878;28;20491;-81
2022/03/10 07:34:44;;;;;;;25.15;16.42;;;;;;;7.74;42.15;102221.66;5029412;28;20052;-81
2022/03/10 07:37:11;;;;;;;22.90;17.70;;;;;;;7.57;42.07;102185.50;5013573;28;20114;-79
2022/03/10 07:39:37;;;;;;;20.17;16.35;;;;;;;7.75;42.75;102196.94;5030115;28;20049;-81
2022/03/10 07:42:05;;;;;;;26.95;18.35;;;;;;;8.03;42.10;102218.34;5025675;28;20080;-80
2022/03/10 07:44:32;;;;;;;35.80;18.55;;;;;;;8.01;41.22;102198.19;5010148;28;20073;-79
2022/03/10 07:46:59;;;;;;;27.27;19.63;;;;;;;8.02;40.81;102182.28;5027988;28;20064;-80
2022/03/10 07:49:29;;;;;;;30.52;18.02;;;;;;;8.06;41.09;102197.03;5012463;28;20128;-81
2022/03/10 07:51:56;;;;;;;26.15;19.23;;;;;;;7.75;41.21;102144.91;5028718;28;20144;-81
2022/03/10 07:54:23;;;;;;;25.75;18.38;;;;;;;7.78;41.54;102160.59;5026794;28;20140;-80
2022/03/10 07:56:50;;;;;;;22.50;16.98;;;;;;;8.20;41.57;102229.84;5027872;28;20406;-83
2022/03/10 07:59:16;;;;;;;27.35;19.08;;;;;;;8.04;41.84;102201.56;5030446;28;20140;-83
2022/03/10 08:01:44;;;;;;;26.30;16.67;;;;;;;8.24;41.76;102226.94;5031503;28;20056;-82
2022/03/10 08:04:12;;;;;;;25.45;18.40;;;;;;;8.30;41.51;102224.00;5030454;28;20282;-83
2022/03/10 08:06:38;;;;;;;24.85;17.45;;;;;;;8.16;40.66;102160.38;5013598;28;20134;-82
2022/03/10 08:09:10;;;;;;;24.00;18.48;;;;;;;8.48;40.59;102201.00;5030099;28;20049;-82
2022/03/10 08:11:39;;;;;;;27.35;17.98;;;;;;;8.08;40.90;102154.63;5030482;28;20140;-81
2022/03/10 08:14:07;;;;;;;28.67;19.23;;;;;;;8.28;40.38;102183.53;5029892;28;20388;-82
2022/03/10 08:16:34;;;;;;;28.65;20.55;;;;;;;7.97;40.70;102128.75;5013475;28;20400;-81
2022/03/10 08:19:03;;;;;;;26.90;18.85;;;;;;;8.42;40.58;102184.59;5013780;28;20119;-81
2022/03/10 08:21:30;;;;;;;27.50;20.42;;;;;;;8.34;40.04;102185.81;5013632;28;20514;-83
2022/03/10 08:23:58;;;;;;;29.77;18.58;;;;;;;8.39;39.93;102174.13;5031705;28;20049;-81
2022/03/10 08:26:25;;;;;;;26.10;18.50;;;;;;;8.53;39.33;102198.09;5014049;28;20088;-82
2022/03/10 08:28:53;;;;;;;25.20;18.73;;;;;;;8.42;39.83;102174.84;5014102;28;20050;-82
2022/03/10 08:31:21;;;;;;;26.20;18.88;;;;;;;8.55;40.05;102207.66;5033763;28;20061;-82
2022/03/10 08:33:48;;;;;;;26.75;19.20;;;;;;;8.69;39.92;102230.75;5040089;28;20057;-82
2022/03/10 08:36:15;;;;;;;27.38;19.85;;;;;;;8.65;39.75;102200.06;5036812;28;20088;-82
2022/03/10 08:38:42;;;;;;;24.55;19.75;;;;;;;8.80;39.55;102224.84;5025837;28;20107;-80
2022/03/10 08:41:09;;;;;;;27.73;19.83;;;;;;;8.86;39.58;102220.97;5015294;28;20052;-80
2022/03/10 08:43:37;;;;;;;29.58;20.23;;;;;;;8.77;39.76;102199.38;5031615;28;20049;-80
2022/03/10 08:46:05;;;;;;;26.10;19.60;;;;;;;8.49;39.95;102128.56;5013941;28;20045;-80
2022/03/10 08:48:34;;;;;;;27.05;18.48;;;;;;;8.68;39.88;102167.28;5014045;28;20107;-80
2022/03/10 08:51:02;;;;;;;24.15;18.17;;;;;;;8.82;40.15;102166.50;5026702;28;20608;-79
2022/03/10 08:53:30;;;;;;;23.38;19.77;;;;;;;8.84;40.48;102197.25;5009408;28;20084;-84
2022/03/10 08:55:57;;;;;;;33.65;20.65;;;;;;;8.54;40.97;102146.84;4992447;28;20137;-80
2022/03/10 08:58:24;;;;;;;27.52;20.05;;;;;;;9.03;40.24;102206.78;4993911;28;20057;-81
2022/03/10 09:00:51;;;;;;;27.00;20.50;;;;;;;9.09;40.15;102198.50;4993015;28;20080;-82
2022/03/10 09:03:38;;;;;;;28.20;20.33;;;;;;;9.10;40.15;102173.72;5010432;28;20407;-78
2022/03/10 09:06:07;;;;;;;31.90;21.88;;;;;;;9.31;40.44;102209.56;5010413;28;20578;-83
2022/03/10 09:08:34;;;;;;;31.83;21.85;;;;;;;9.16;40.52;102183.97;4992963;28;20558;-80
2022/03/10 09:11:02;;;;;;;27.20;20.98;;;;;;;8.58;39.93;102070.78;4993131;28;20053;-80
2022/03/10 09:13:29;;;;;;;32.40;22.75;;;;;;;9.05;40.33;102126.28;5010379;28;20056;-79
2022/03/10 09:15:56;;;;;;;34.95;23.50;;;;;;;8.45;39.63;101988.59;5024892;28;20143;-80
2022/03/10 09:18:29;;;;;;;31.98;24.02;;;;;;;9.83;39.58;102216.25;5029896;28;20111;-79
2022/03/10 09:21:06;;;;;;;31.65;23.13;;;;;;;9.30;39.57;102093.91;5012026;28;20136;-81
2022/03/10 09:23:33;;;;;;;32.33;22.92;;;;;;;9.91;39.50;102166.25;5027719;28;20539;-80
2022/03/10 09:26:02;;;;;;;30.83;23.95;;;;;;;8.93;38.82;101978.69;5009599;28;20057;-80
2022/03/10 09:28:29;;;;;;;36.67;22.90;;;;;;;10.47;39.27;102201.69;5012207;28;20061;-78
2022/03/10 09:30:56;;;;;;;32.05;22.70;;;;;;;10.54;39.32;102196.00;5029507;28;20049;-80
2022/03/10 09:33:23;;;;;;;36.08;24.67;;;;;;;10.61;39.40;102181.41;5009616;28;20408;-80
2022/03/10 09:35:51;;;;;;;40.30;27.27;;;;;;;10.83;38.88;102183.53;5011590;28;20056;-80
2022/03/10 09:38:18;;;;;;;36.92;25.30;;;;;;;11.02;38.09;102177.84;5027061;28;20140;-77
2022/03/10 09:40:47;;;;;;;36.38;25.52;;;;;;;11.25;38.42;102198.44;5011558;28;20072;-84
2022/03/10 09:43:14;;;;;;;36.60;26.10;;;;;;;11.09;37.78;102152.56;5027924;28;20050;-79
2022/03/10 09:45:43;;;;;;;35.78;26.92;;;;;;;11.51;38.27;102193.19;5009392;28;20492;-82
2022/03/10 09:48:10;;;;;;;37.35;25.98;;;;;;;11.72;37.31;102194.41;5011367;28;20057;-79
2022/03/10 09:50:40;;;;;;;43.67;25.35;;;;;;;11.92;36.60;102185.06;5029718;28;20050;-79
2022/03/10 09:53:07;;;;;;;39.03;25.95;;;;;;;10.91;35.68;102005.84;5011967;28;20051;-79
2022/03/10 09:55:37;;;;;;;38.67;27.17;;;;;;;11.83;36.11;102155.56;5032448;28;20076;-81
2022/03/10 09:58:05;;;;;;;34.85;24.70;;;;;;;11.67;35.79;102097.22;5035016;28;20076;-82
2022/03/10 10:09:33;;;;;;;;;;;;;;;;;;;;;
2022/03/10 10:16:02;;;;;;;29.15;22.10;;;;;;;12.76;33.56;102087.59;4837115;29;20065;-81
2022/03/10 10:18:32;;;;;;;27.52;21.42;;;;;;;12.69;32.77;102045.53;4948171;28;20065;-83
2022/03/10 10:21:18;;;;;;;29.23;22.27;;;;;;;12.40;32.40;101952.66;5006872;28;20070;-82
2022/03/10 10:28:46;;;;;;;30.85;22.75;;;;;;;14.00;31.67;102148.41;4985550;28;20057;-80
2022/03/10 10:39:17;;;;;;;29.58;22.98;;;;;;;13.95;31.04;102022.44;4857928;29;20085;-83
2022/03/10 10:41:46;;;;;;;29.70;22.10;;;;;;;14.68;31.62;102120.66;4945643;28;20446;-84
2022/03/10 10:44:20;;;;;;;30.55;22.48;;;;;;;14.48;30.59;102067.97;4949983;28;20054;-83
2022/03/10 10:46:54;;;;;;;29.52;23.13;;;;;;;15.01;30.67;102145.56;5006451;28;20147;-84
2022/03/10 10:49:24;;;;;;;25.58;20.92;;;;;;;15.01;30.76;102108.13;5004310;28;20152;-84
2022/03/10 10:51:55;;;;;;;33.33;22.05;;;;;;;15.00;30.08;102079.72;5003949;28;20573;-84
2022/03/10 10:54:23;;;;;;;31.30;22.35;;;;;;;15.16;29.92;102069.38;5008013;28;20056;-84
2022/03/10 10:56:55;;;;;;;25.85;20.13;;;;;;;15.48;29.39;102103.25;5025337;28;20045;-83
2022/03/10 10:59:43;;;;;;;29.27;20.20;;;;;;;15.85;29.23;102129.56;5002857;28;20038;-84
2022/03/10 11:02:20;;;;;;;24.63;19.88;;;;;;;15.80;28.70;102094.28;5023199;28;20048;-82
2022/03/10 11:04:48;;;;;;;27.35;19.20;;;;;;;15.78;28.83;102074.84;4947475;28;1208050;-82
2022/03/10 11:07:18;;;;;;;22.98;18.55;;;;;;;16.30;28.54;102123.78;4989740;28;20489;-81
2022/03/10 11:09:47;;;;;;;20.88;17.42;;;;;;;16.43;28.25;102115.47;4988863;28;20046;-83
2022/03/10 11:12:16;;;;;;;24.73;19.15;;;;;;;16.54;27.58;102117.22;4990139;28;20129;-82
2022/03/10 11:14:47;;;;;;;19.35;16.35;;;;;;;15.74;27.63;102004.63;4995447;28;20045;-83
2022/03/10 11:17:16;;;;;;;24.00;17.75;;;;;;;16.39;27.99;102095.31;5009485;28;20415;-83
2022/03/10 11:19:45;;;;;;;24.10;18.23;;;;;;;16.35;27.40;102073.28;5009507;28;20056;-83
2022/03/10 11:22:33;;;;;;;24.02;17.58;;;;;;;16.76;27.25;102106.22;5009384;28;20116;-82
2022/03/10 11:25:38;;;;;;;24.70;17.92;;;;;;;16.60;26.63;102057.66;5009864;28;20099;-84
2022/03/10 11:28:17;;;;;;;;;;;;;;;16.81;26.07;102097.78;5009440;28;20088;-83
2022/03/10 11:30:51;;;;;;;19.65;15.57;;;;;;;17.01;26.75;102088.75;5011290;28;20299;-83
2022/03/10 11:33:18;;;;;;;19.27;15.45;;;;;;;17.24;26.02;102085.75;5009165;28;20133;-83
2022/03/10 11:35:50;;;;;;;19.27;15.48;;;;;;;16.51;25.57;101964.72;5008394;28;20133;-84
2022/03/10 11:38:18;;;;;;;30.55;20.10;;;;;;;16.85;26.48;102022.28;5008969;28;20052;-82
2022/03/10 11:41:00;;;;;;;22.10;19.55;;;;;;;16.16;26.43;101902.63;5007234;28;20064;-82
2022/03/10 11:43:35;;;;;;;24.75;19.92;;;;;;;17.23;26.29;102063.47;5006411;28;20101;-84
2022/03/10 11:46:14;;;;;;;22.00;19.13;;;;;;;17.12;25.61;102055.56;4989283;28;20058;-81
2022/03/10 11:48:42;;;;;;;21.70;15.73;;;;;;;16.75;26.37;102009.81;5005262;28;20045;-84
2022/03/10 11:51:16;;;;;;;24.23;17.40;;;;;;;16.86;25.60;102061.50;4989075;28;20479;-84
2022/03/10 11:54:06;;;;;;;23.95;17.35;;;;;;;16.66;24.93;102068.69;5021300;28;20051;-83
2022/03/10 11:56:35;;;;;;;18.75;15.50;;;;;;;16.44;25.77;102069.78;4992219;28;20433;-84